Time;durP1;ratioP1;P1;durP2;ratioP2;P2;SDS_P1;SDS_P2;PMS_P1;PMS_P2;Temp;Humidity;BMP_temperature;BMP_pressure;BME280_temperature;BME280_humidity;BME280_pressure;Samples;Min_cycle;Max_cycle;Signal;HPM_P1;HPM_P2
2022/05/12 00:01:58;;;;;;;5.12;2.98;;;;;;;21.38;47.73;101028.25;1727059;81;22907;-82
2022/05/12 00:04:26;;;;;;;4.70;2.95;;;;;;;21.38;47.73;101028.25;1727479;81;20986;-82
2022/05/12 00:06:53;;;;;;;4.87;2.95;;;;;;;21.38;47.71;101036.55;1726846;83;21049;-83
2022/05/12 00:09:26;;;;;;;4.10;2.90;;;;;;;21.38;47.71;101030.45;1726941;82;21084;-83
2022/05/12 00:11:52;;;;;;;4.87;3.00;;;;;;;21.38;47.71;101033.78;1727041;81;21108;-83
2022/05/12 00:14:18;;;;;;;4.12;2.75;;;;;;;21.38;47.69;101035.17;1727428;81;21026;-83
2022/05/12 00:16:45;;;;;;;3.77;2.87;;;;;;;21.37;47.67;101035.73;1726930;83;21095;-82
2022/05/12 00:19:17;;;;;;;5.78;3.10;;;;;;;21.37;47.66;101032.97;1727169;81;21009;-82
2022/05/12 00:21:43;;;;;;;4.40;2.95;;;;;;;21.37;47.66;101033.53;1727398;83;21104;-82
2022/05/12 00:24:10;;;;;;;4.33;2.40;;;;;;;21.37;47.65;101031.58;1726966;81;21085;-82
2022/05/12 00:26:36;;;;;;;4.28;2.90;;;;;;;21.37;47.64;101026.61;1727124;82;21088;-83
2022/05/12 00:29:06;;;;;;;4.95;2.65;;;;;;;21.37;47.65;101026.61;1727249;83;21096;-83
2022/05/12 00:31:34;;;;;;;5.33;2.92;;;;;;;21.36;47.62;101027.73;1726910;83;21065;-83
2022/05/12 00:34:01;;;;;;;4.10;2.70;;;;;;;21.35;47.61;101024.15;1727354;82;21072;-83
2022/05/12 00:36:27;;;;;;;4.92;3.00;;;;;;;21.36;47.63;101034.09;1727220;83;21443;-83
2022/05/12 00:38:53;;;;;;;3.58;2.80;;;;;;;21.37;47.60;101033.53;1706277;83;21563;-83
2022/05/12 00:41:19;;;;;;;4.00;2.95;;;;;;;21.36;47.63;101032.71;1728529;81;21041;-83
2022/05/12 00:43:49;;;;;;;4.17;2.47;;;;;;;21.37;47.60;101029.38;1729409;82;21080;-83
2022/05/12 00:46:25;;;;;;;6.75;3.00;;;;;;;21.37;47.59;101038.50;1728854;82;21093;-82
2022/05/12 00:48:52;;;;;;;4.12;3.10;;;;;;;21.35;47.57;101028.30;1728746;82;21525;-83
2022/05/12 00:51:22;;;;;;;3.58;2.47;;;;;;;21.36;47.57;101028.56;1728871;83;20989;-82
2022/05/12 00:53:50;;;;;;;3.33;2.70;;;;;;;21.36;47.53;101038.25;1729391;83;21044;-83
2022/05/12 00:56:19;;;;;;;4.75;3.15;;;;;;;21.35;47.53;101035.78;1729141;81;21488;-82
2022/05/12 00:58:45;;;;;;;4.80;3.10;;;;;;;21.35;47.53;101037.16;1728718;83;21108;-82
2022/05/12 01:01:11;;;;;;;4.37;2.87;;;;;;;21.35;47.50;101033.02;1729113;83;21417;-83
2022/05/12 01:03:39;;;;;;;4.05;2.60;;;;;;;21.36;47.47;101038.80;1728967;82;21041;-83
2022/05/12 01:06:07;;;;;;;3.45;2.70;;;;;;;21.36;47.49;101033.27;1728887;83;21005;-82
2022/05/12 01:08:33;;;;;;;5.03;2.95;;;;;;;21.36;47.47;101041.58;1729018;81;21060;-82
2022/05/12 01:11:08;;;;;;;4.40;2.87;;;;;;;21.35;47.46;101045.47;1708511;83;21037;-82
2022/05/12 01:13:34;;;;;;;4.42;3.10;;;;;;;21.35;47.45;101039.94;1728989;81;21016;-83
2022/05/12 01:16:02;;;;;;;4.25;2.95;;;;;;;21.34;47.44;101039.70;1732596;81;21064;-83
2022/05/12 01:18:30;;;;;;;3.95;2.75;;;;;;;21.34;47.42;101039.11;1729386;81;21088;-83
2022/05/12 01:20:58;;;;;;;4.90;3.22;;;;;;;21.35;47.43;101038.55;1703605;82;21575;-83
2022/05/12 01:23:30;;;;;;;5.45;3.05;;;;;;;21.34;47.40;101043.86;1722558;82;21052;-83
2022/05/12 01:26:07;;;;;;;4.30;2.90;;;;;;;21.34;47.39;101048.80;1713394;82;21467;-82
2022/05/12 01:28:33;;;;;;;4.47;2.90;;;;;;;21.34;47.38;101046.63;1709619;83;21424;-82
2022/05/12 01:31:00;;;;;;;3.77;2.80;;;;;;;21.33;47.38;101043.04;1696380;84;21105;-83
2022/05/12 01:33:26;;;;;;;4.20;3.00;;;;;;;21.33;47.35;101044.42;1708848;84;21034;-83
2022/05/12 01:35:53;;;;;;;3.17;2.50;;;;;;;21.33;47.34;101046.37;1708460;82;21544;-82
2022/05/12 01:38:19;;;;;;;4.53;2.60;;;;;;;21.32;47.33;101051.08;1708648;83;21271;-83
2022/05/12 01:40:45;;;;;;;4.03;3.27;;;;;;;21.33;47.34;101050.52;1708507;83;21172;-82
2022/05/12 01:43:14;;;;;;;5.65;2.92;;;;;;;21.32;47.33;101047.49;1729502;82;21096;-82
2022/05/12 01:45:40;;;;;;;3.83;2.52;;;;;;;21.32;47.32;101051.08;1728620;82;21593;-82
2022/05/12 01:48:09;;;;;;;4.55;2.83;;;;;;;21.32;47.31;101053.85;1730892;82;21079;-83
2022/05/12 01:50:38;;;;;;;3.60;2.90;;;;;;;21.33;47.29;101051.91;1727467;82;21096;-82
2022/05/12 01:53:05;;;;;;;6.80;3.35;;;;;;;21.33;47.27;101051.91;1724776;82;21451;-82
2022/05/12 01:55:31;;;;;;;3.55;2.90;;;;;;;21.32;47.27;101046.94;1728908;82;21279;-83
2022/05/12 01:57:57;;;;;;;4.15;2.98;;;;;;;21.32;47.25;101053.03;1705315;82;21092;-82
2022/05/12 02:00:27;;;;;;;3.65;3.12;;;;;;;21.32;47.25;101058.56;1727900;82;21543;-83
2022/05/12 02:02:54;;;;;;;4.05;3.30;;;;;;;21.32;47.22;101054.41;1731302;82;21201;-83
2022/05/12 02:05:20;;;;;;;4.58;2.92;;;;;;;21.31;47.21;101057.75;1747869;80;21021;-83
2022/05/12 02:07:48;;;;;;;5.58;3.27;;;;;;;21.31;47.20;101057.75;1771177;80;21406;-82
2022/05/12 02:10:22;;;;;;;5.28;3.05;;;;;;;21.32;47.20;101059.95;1771092;80;21402;-82
2022/05/12 02:12:54;;;;;;;5.37;3.40;;;;;;;21.30;47.37;101056.10;1750626;80;21020;-83
2022/05/12 02:15:21;;;;;;;6.15;3.47;;;;;;;21.30;47.37;101056.10;1771004;79;22815;-83
2022/05/12 02:17:49;;;;;;;4.05;2.65;;;;;;;21.31;47.15;101060.52;1771133;80;21016;-83
2022/05/12 02:20:16;;;;;;;3.95;3.15;;;;;;;21.30;47.14;101060.84;1770832;80;21509;-82
2022/05/12 02:22:42;;;;;;;5.60;3.40;;;;;;;21.30;47.12;101063.02;1771119;80;21067;-82
2022/05/12 02:25:09;;;;;;;4.87;3.22;;;;;;;21.30;47.12;101063.02;1721974;81;21048;-81
2022/05/12 02:27:35;;;;;;;5.92;3.33;;;;;;;21.29;47.13;101066.95;1770946;79;21097;-82
2022/05/12 02:30:02;;;;;;;5.87;3.15;;;;;;;21.29;47.12;101062.80;1771100;80;21485;-83
2022/05/12 02:32:28;;;;;;;5.65;3.02;;;;;;;21.30;47.08;101067.77;1747749;81;21027;-83
2022/05/12 02:34:55;;;;;;;4.58;3.20;;;;;;;21.30;47.09;101066.38;1770954;80;20983;-83
2022/05/12 02:37:21;;;;;;;3.95;2.80;;;;;;;21.30;47.07;101076.07;1771052;80;21119;-82
2022/05/12 02:39:48;;;;;;;5.00;3.27;;;;;;;21.30;47.06;101071.92;1771041;79;21081;-82
2022/05/12 02:42:14;;;;;;;5.65;3.25;;;;;;;21.29;47.06;101071.09;1770834;81;21028;-82
2022/05/12 02:44:40;;;;;;;5.40;3.47;;;;;;;21.31;47.05;101085.42;1771022;80;20956;-82
2022/05/12 02:47:07;;;;;;;3.90;2.90;;;;;;;21.29;47.02;101080.78;1770926;79;21035;-83
2022/05/12 02:49:34;;;;;;;3.75;3.17;;;;;;;21.29;47.02;101086.31;1770847;79;21094;-82
2022/05/12 02:52:00;;;;;;;5.15;2.92;;;;;;;21.29;47.02;101086.88;1747564;81;21155;-82
2022/05/12 02:54:34;;;;;;;5.12;3.60;;;;;;;21.30;47.00;101088.52;1770314;80;21063;-82
2022/05/12 02:57:00;;;;;;;4.22;2.70;;;;;;;21.29;46.99;101091.03;1770779;80;21141;-83
2022/05/12 02:59:26;;;;;;;5.05;3.62;;;;;;;21.27;46.96;101091.34;1773186;80;21040;-82
2022/05/12 03:01:53;;;;;;;4.80;3.17;;;;;;;21.28;46.94;101088.83;1771055;81;21059;-83
2022/05/12 03:04:19;;;;;;;5.10;3.30;;;;;;;21.29;46.95;101097.95;1770485;79;21030;-82
2022/05/12 03:06:46;;;;;;;4.92;3.25;;;;;;;21.28;46.93;101091.59;1723257;81;21000;-83
2022/05/12 03:09:12;;;;;;;7.05;3.33;;;;;;;21.28;46.92;101104.05;1770493;79;21628;-82
2022/05/12 03:11:39;;;;;;;3.92;2.75;;;;;;;21.28;46.86;101106.00;1770465;80;21059;-82
2022/05/12 03:14:05;;;;;;;5.80;3.47;;;;;;;21.28;46.89;101108.77;1770610;80;21004;-83
2022/05/12 03:16:32;;;;;;;4.20;3.40;;;;;;;21.28;46.88;101104.05;1770323;79;21145;-81
2022/05/12 03:18:58;;;;;;;6.45;3.45;;;;;;;21.27;46.86;101110.70;1770287;81;21052;-83
2022/05/12 03:21:26;;;;;;;4.25;3.17;;;;;;;21.28;46.86;101111.53;1770755;79;21066;-83
2022/05/12 03:23:53;;;;;;;4.58;3.35;;;;;;;21.28;46.83;101108.77;1770874;81;21056;-82
2022/05/12 03:26:20;;;;;;;5.90;3.30;;;;;;;21.27;46.84;101101.58;1747473;81;21091;-82
2022/05/12 03:28:46;;;;;;;4.30;3.08;;;;;;;21.27;46.84;101101.02;1770333;80;21867;-83
2022/05/12 03:31:12;;;;;;;5.37;3.00;;;;;;;21.27;46.83;101109.89;1767155;79;21059;-82
2022/05/12 03:33:39;;;;;;;3.95;3.05;;;;;;;21.27;46.82;101116.80;1771078;81;21001;-83
2022/05/12 03:36:06;;;;;;;3.98;3.27;;;;;;;21.27;46.82;101116.24;1746667;81;21095;-83
2022/05/12 03:38:33;;;;;;;4.65;3.20;;;;;;;21.27;46.81;101111.27;1771306;81;21032;-82
2022/05/12 03:40:59;;;;;;;4.75;3.35;;;;;;;21.27;46.81;101116.80;1772078;80;21071;-83
2022/05/12 03:46:13;;;;;;;4.03;3.22;;;;;;;21.27;46.76;101120.39;1776689;79;21096;-82
2022/05/12 03:48:39;;;;;;;4.58;3.30;;;;;;;21.28;46.76;101117.06;1777013;80;21008;-83
2022/05/12 03:51:06;;;;;;;4.42;3.45;;;;;;;21.27;46.76;101120.95;1777233;80;21039;-83
2022/05/12 03:53:33;;;;;;;4.28;3.27;;;;;;;21.27;46.77;101122.34;1776571;80;21969;-83
2022/05/12 03:56:00;;;;;;;4.78;3.50;;;;;;;21.26;46.80;101119.34;1776958;80;21008;-83
2022/05/12 03:58:27;;;;;;;6.42;3.80;;;;;;;21.26;46.76;101120.13;1777114;80;21103;-83
2022/05/12 04:00:53;;;;;;;4.92;3.40;;;;;;;21.27;46.76;101130.64;1776595;80;21538;-83
2022/05/12 04:03:20;;;;;;;5.37;3.67;;;;;;;21.26;46.76;101131.20;1777071;79;21067;-82
2022/05/12 04:05:46;;;;;;;5.85;3.45;;;;;;;21.24;46.75;101134.87;1776946;80;21471;-83
2022/05/12 04:08:13;;;;;;;4.78;3.80;;;;;;;21.26;46.74;101134.56;1776519;80;21059;-83
2022/05/12 04:10:39;;;;;;;7.72;3.55;;;;;;;21.25;46.75;101131.54;1777108;79;21020;-82
2022/05/12 04:13:05;;;;;;;4.47;3.67;;;;;;;21.25;46.72;101131.54;1726270;81;21557;-84
2022/05/12 04:15:32;;;;;;;7.83;3.50;;;;;;;21.26;46.73;101137.33;1740359;81;21058;-84
2022/05/12 04:18:01;;;;;;;4.92;4.03;;;;;;;21.27;46.79;101138.95;1740686;81;22069;-83
2022/05/12 04:20:34;;;;;;;7.10;3.70;;;;;;;21.27;46.80;101143.09;1710018;83;21082;-83
2022/05/12 04:23:00;;;;;;;5.58;3.47;;;;;;;21.26;46.88;101139.50;1700470;84;21584;-83
2022/05/12 04:25:27;;;;;;;5.95;3.60;;;;;;;21.27;46.91;101148.63;1706875;82;21036;-84
2022/05/12 04:27:53;;;;;;;5.37;3.77;;;;;;;21.27;46.93;101147.25;1717734;82;21081;-84
2022/05/12 04:30:24;;;;;;;5.90;3.72;;;;;;;21.27;46.95;101146.69;1723559;82;21511;-84
2022/05/12 04:32:50;;;;;;;8.17;3.73;;;;;;;21.28;46.92;101148.89;1722404;82;21049;-83
2022/05/12 04:35:16;;;;;;;5.33;3.55;;;;;;;21.29;46.89;101147.77;1739255;81;20990;-85
2022/05/12 04:37:48;;;;;;;12.95;4.08;;;;;;;21.28;46.90;101144.17;1756354;81;21074;-84
2022/05/12 04:40:25;;;;;;;8.15;3.83;;;;;;;21.27;46.87;101150.02;1750430;80;21106;-82
2022/05/12 04:42:52;;;;;;;9.73;3.85;;;;;;;21.28;46.83;101153.04;1749523;79;21115;-83
2022/05/12 04:45:19;;;;;;;14.85;4.05;;;;;;;21.26;46.84;101151.95;1718327;80;21071;-83
2022/05/12 04:47:46;;;;;;;10.18;4.47;;;;;;;21.27;46.81;101156.93;1729406;81;21068;-82
2022/05/12 04:50:18;;;;;;;17.87;3.83;;;;;;;21.26;46.83;101156.11;1755575;81;21076;-89
2022/05/12 04:52:44;;;;;;;9.93;3.90;;;;;;;21.25;46.87;101160.03;1726708;81;21041;-85
2022/05/12 04:55:14;;;;;;;14.10;4.45;;;;;;;21.26;46.96;101149.19;1731638;81;21535;-86
2022/05/12 04:57:43;;;;;;;16.02;4.15;;;;;;;21.27;46.90;101157.75;1742737;81;21096;-80
2022/05/12 05:00:17;;;;;;;23.55;4.20;;;;;;;21.25;46.91;101155.87;1766565;79;21089;-84
2022/05/12 05:02:44;;;;;;;26.52;4.47;;;;;;;21.27;46.96;101162.47;1754040;79;22210;-85
2022/05/12 05:05:11;;;;;;;20.15;4.50;;;;;;;21.26;46.98;101153.34;1739506;80;20965;-83
2022/05/12 05:07:37;;;;;;;25.50;5.03;;;;;;;21.28;47.01;101161.34;1740174;80;21279;-85
2022/05/12 05:10:04;;;;;;;19.12;4.78;;;;;;;21.29;47.06;101165.75;1731329;81;21102;-80
2022/05/12 05:12:31;;;;;;;24.95;5.33;;;;;;;21.28;47.08;101170.47;1722218;81;21104;-84
2022/05/12 05:14:58;;;;;;;19.95;5.35;;;;;;;21.29;47.04;101161.60;1724882;81;21064;-83
2022/05/12 05:17:27;;;;;;;12.95;4.20;;;;;;;21.29;47.08;101165.19;1725719;81;21049;-81
2022/05/12 05:19:54;;;;;;;18.55;4.58;;;;;;;21.31;47.09;101167.06;1724107;81;21524;-82
2022/05/12 05:22:20;;;;;;;18.20;4.75;;;;;;;21.30;47.16;101168.78;1723100;81;21087;-84
2022/05/12 05:24:47;;;;;;;20.60;7.70;;;;;;;21.31;47.20;101171.78;1727497;81;21720;-82
2022/05/12 05:27:14;;;;;;;27.80;9.10;;;;;;;21.32;47.21;101172.03;1715846;81;21144;-84
2022/05/12 05:29:41;;;;;;;22.10;9.58;;;;;;;21.30;47.21;101172.34;1723742;81;21040;-81
2022/05/12 05:32:09;;;;;;;24.72;8.30;;;;;;;21.30;47.22;101176.48;1715523;81;21818;-83
2022/05/12 05:34:36;;;;;;;42.98;12.93;;;;;;;21.30;47.24;101177.08;1718872;81;21093;-84
2022/05/12 05:37:02;;;;;;;36.93;11.55;;;;;;;21.30;47.20;101175.70;1727274;81;21538;-86
2022/05/12 05:39:35;;;;;;;37.28;10.18;;;;;;;21.29;47.17;101183.18;1732580;80;21072;-83
2022/05/12 05:42:07;;;;;;;33.38;9.30;;;;;;;21.27;47.08;101173.53;1733023;81;21041;-84
2022/05/12 05:44:33;;;;;;;31.48;8.18;;;;;;;21.26;47.00;101174.09;1737376;81;22158;-84
2022/05/12 05:47:00;;;;;;;28.15;7.47;;;;;;;21.25;46.95;101174.43;1733170;81;21094;-81
2022/05/12 05:49:30;;;;;;;28.02;7.03;;;;;;;21.24;46.86;101172.78;1733248;81;21582;-86
2022/05/12 05:54:41;;;;;;;24.23;5.70;;;;;;;21.19;46.84;101171.52;1744082;80;21036;-85
2022/05/12 05:57:08;;;;;;;20.85;5.47;;;;;;;21.14;46.81;101175.22;1724169;81;21066;-92
2022/05/12 05:59:38;;;;;;;21.50;6.30;;;;;;;21.13;47.02;101178.32;1740697;81;21107;-88
2022/05/12 06:02:11;;;;;;;37.40;6.72;;;;;;;21.13;47.23;101177.73;1700630;82;21091;-87
2022/05/12 06:04:37;;;;;;;25.23;5.95;;;;;;;21.15;47.19;101171.89;1716609;81;21014;-84
2022/05/12 06:07:07;;;;;;;22.05;5.40;;;;;;;21.15;47.24;101182.39;1729164;81;21458;-86
2022/05/12 06:09:34;;;;;;;27.15;6.03;;;;;;;21.18;47.23;101172.64;1718349;82;22036;-85
2022/05/12 06:12:04;;;;;;;23.07;5.60;;;;;;;21.17;47.30;101174.62;1747943;79;21098;-84
2022/05/12 06:14:33;;;;;;;17.73;6.12;;;;;;;21.17;47.18;101176.00;1747527;79;21153;-85
2022/05/12 06:17:00;;;;;;;17.48;5.20;;;;;;;21.16;47.02;101184.60;1751586;80;21122;-84
2022/05/12 06:19:30;;;;;;;14.35;4.90;;;;;;;21.15;46.83;101182.39;1723755;82;21077;-85
2022/05/12 06:21:57;;;;;;;18.73;5.58;;;;;;;21.14;46.70;101179.37;1733265;81;21084;-81
2022/05/12 06:24:24;;;;;;;11.45;4.75;;;;;;;21.13;46.51;101176.94;1730707;81;21690;-83
2022/05/12 06:26:51;;;;;;;14.25;5.45;;;;;;;21.15;46.43;101171.89;1727746;81;22243;-83
2022/05/12 06:29:19;;;;;;;14.80;5.28;;;;;;;21.15;46.41;101166.36;1739811;81;21061;-82
2022/05/12 06:31:46;;;;;;;13.75;4.40;;;;;;;21.16;46.31;101177.69;1727372;81;21052;-80
2022/05/12 06:34:12;;;;;;;9.33;3.77;;;;;;;21.17;46.08;101175.18;1752339;79;22475;-80
2022/05/12 06:36:41;;;;;;;9.28;4.00;;;;;;;21.18;45.75;101172.64;1757463;80;21085;-83
2022/05/12 06:39:09;;;;;;;6.97;3.52;;;;;;;21.18;45.57;101170.70;1734544;80;21063;-85
2022/05/12 06:41:36;;;;;;;11.53;4.40;;;;;;;21.21;45.36;101169.27;1748414;79;21543;-88
2022/05/12 06:44:04;;;;;;;12.70;3.50;;;;;;;21.23;45.31;101178.06;1738393;80;21668;-80
2022/05/12 06:46:31;;;;;;;12.05;4.47;;;;;;;21.25;45.10;101166.13;1730125;80;21157;-85
2022/05/12 06:48:58;;;;;;;8.68;4.17;;;;;;;21.26;44.94;101167.77;1743778;79;21186;-85
2022/05/12 06:51:37;;;;;;;23.92;3.87;;;;;;;21.28;44.84;101169.64;1747128;80;21105;-85
2022/05/12 06:54:09;;;;;;;24.70;5.20;;;;;;;21.30;44.72;101170.95;1748618;78;21072;-84
2022/05/12 06:56:37;;;;;;;37.85;5.83;;;;;;;21.34;44.97;101176.70;1712443;82;22186;-85
2022/05/12 06:59:09;;;;;;;27.22;5.92;;;;;;;21.36;45.29;101175.25;1737274;80;21257;-83
2022/05/12 07:01:36;;;;;;;46.25;5.90;;;;;;;21.40;45.47;101180.41;1734415;80;21610;-80
2022/05/12 07:04:02;;;;;;;31.85;5.72;;;;;;;21.42;45.57;101171.80;1740875;80;21079;-86
2022/05/12 07:06:29;;;;;;;25.50;5.00;;;;;;;21.45;45.95;101178.08;1729547;80;21056;-85
2022/05/12 07:08:56;;;;;;;26.75;5.42;;;;;;;21.48;46.16;101178.01;1738889;80;21542;-81
2022/05/12 07:11:22;;;;;;;19.77;5.90;;;;;;;21.49;46.22;101174.94;1743200;80;21305;-80
2022/05/12 07:13:48;;;;;;;19.62;5.58;;;;;;;21.52;46.36;101177.62;1743905;80;21052;-83
2022/05/12 07:16:15;;;;;;;16.45;5.30;;;;;;;21.52;46.40;101177.06;1739776;80;21147;-81
2022/05/12 07:18:41;;;;;;;18.85;4.35;;;;;;;21.54;46.41;101177.58;1732687;80;21059;-81
2022/05/12 07:26:41;;;;;;;18.12;4.30;;;;;;;21.59;45.74;101171.92;1722729;81;21061;-80
2022/05/12 07:29:12;;;;;;;13.95;5.08;;;;;;;21.61;45.83;101172.41;1741178;80;28301;-81
2022/05/12 07:31:38;;;;;;;23.77;6.35;;;;;;;21.62;46.00;101172.67;1735255;80;21033;-80
2022/05/12 07:34:05;;;;;;;17.98;6.65;;;;;;;21.64;46.15;101175.92;1719571;81;21049;-83
2022/05/12 07:36:37;;;;;;;25.10;6.10;;;;;;;21.65;46.24;101175.36;1741756;81;21106;-84
2022/05/12 07:39:04;;;;;;;19.65;9.83;;;;;;;21.64;46.30;101174.54;1738269;81;21277;-82
2022/05/12 07:41:30;;;;;;;13.15;7.55;;;;;;;21.67;46.16;101171.72;1720791;81;21050;-89
2022/05/12 07:43:57;;;;;;;14.35;6.33;;;;;;;21.68;46.02;101177.52;1755589;79;21095;-82
2022/05/12 07:46:27;;;;;;;14.20;5.95;;;;;;;21.72;45.74;101172.98;1745328;79;21609;-84
2022/05/12 07:48:53;;;;;;;13.30;6.62;;;;;;;21.79;45.40;101175.55;1745298;79;21109;-85
2022/05/12 07:51:24;;;;;;;17.27;6.37;;;;;;;21.83;45.25;101168.24;1715643;81;21045;-90
2022/05/12 07:53:51;;;;;;;21.45;4.85;;;;;;;21.87;44.92;101173.39;1749646;80;21097;-86
2022/05/12 07:56:21;;;;;;;12.73;3.45;;;;;;;21.91;44.66;101172.19;1738062;80;21593;-87
2022/05/12 07:58:47;;;;;;;10.78;4.45;;;;;;;21.94;44.36;101168.80;1749547;80;21131;-85
2022/05/12 08:01:18;;;;;;;22.07;4.35;;;;;;;21.97;44.47;101173.73;1740999;80;21030;-82
2022/05/12 08:03:50;;;;;;;23.50;4.53;;;;;;;21.98;44.40;101174.55;1736088;80;28964;-84
2022/05/12 08:06:17;;;;;;;13.55;4.10;;;;;;;21.99;44.43;101173.39;1742005;80;21132;-83
2022/05/12 08:08:44;;;;;;;28.05;4.33;;;;;;;22.02;44.23;101172.78;1720769;82;21019;-84
2022/05/12 08:11:11;;;;;;;24.05;4.80;;;;;;;22.03;44.12;101168.28;1722529;82;21057;-81
2022/05/12 08:13:38;;;;;;;16.97;4.37;;;;;;;22.05;43.98;101169.36;1739498;80;21036;-83
2022/05/12 08:16:05;;;;;;;20.50;4.35;;;;;;;22.07;43.89;101169.84;1735213;80;21108;-84
2022/05/12 08:18:32;;;;;;;15.43;4.58;;;;;;;22.08;43.81;101169.54;1738756;80;21063;-82
2022/05/12 08:21:00;;;;;;;19.23;4.72;;;;;;;22.10;43.73;101172.00;1733537;80;21096;-82
2022/05/12 08:23:26;;;;;;;20.45;5.12;;;;;;;22.13;43.50;101172.73;1728929;81;21088;-81
2022/05/12 08:25:53;;;;;;;19.95;5.20;;;;;;;22.14;43.41;101168.84;1721023;81;21609;-80
2022/05/12 08:28:21;;;;;;;18.37;4.65;;;;;;;22.14;43.30;101170.22;1731333;81;21140;-79
2022/05/12 08:30:48;;;;;;;17.52;6.17;;;;;;;22.14;43.17;101164.69;1719604;81;21089;-81
2022/05/12 08:33:15;;;;;;;9.80;4.50;;;;;;;22.15;43.34;101160.78;1720834;81;21060;-80
2022/05/12 08:35:42;;;;;;;11.30;4.80;;;;;;;22.15;43.22;101158.02;1717290;81;21152;-80
2022/05/12 08:38:09;;;;;;;11.75;4.20;;;;;;;22.16;43.03;101159.63;1737584;79;42316;-82
2022/05/12 08:41:08;;;;;;;11.60;5.03;;;;;;;22.19;42.66;101157.62;1736361;80;21628;-80
2022/05/12 08:44:03;;;;;;;12.98;5.50;;;;;;;22.22;42.64;101160.56;1747575;79;21088;-82
2022/05/12 08:46:53;;;;;;;24.43;5.83;;;;;;;22.22;42.89;101166.11;1748199;79;21013;-81
2022/05/12 08:49:35;;;;;;;21.97;5.47;;;;;;;22.22;43.41;101158.36;1717277;81;21066;-82
2022/05/12 08:52:28;;;;;;;28.40;5.37;;;;;;;22.25;44.00;101170.18;1751561;81;21076;-81
2022/05/12 08:55:23;;;;;;;13.25;4.37;;;;;;;;;;1736069;81;22217;-80
2022/05/12 08:57:56;;;;;;;24.98;5.53;;;;;;;22.26;44.72;101153.23;1742150;80;21521;-82
2022/05/12 09:00:23;;;;;;;19.70;4.53;;;;;;;22.24;45.01;101156.89;1745926;80;21578;-79
2022/05/12 09:03:17;;;;;;;15.93;5.05;;;;;;;22.24;45.30;101153.30;1702679;82;21088;-78
2022/05/12 09:05:48;;;;;;;19.52;5.10;;;;;;;22.23;45.54;101152.51;1747143;79;21404;-79
2022/05/12 09:08:26;;;;;;;16.02;4.80;;;;;;;22.23;45.82;101153.07;1692491;82;21095;-80
2022/05/12 09:11:03;;;;;;;15.68;4.80;;;;;;;22.21;46.02;101149.78;1705652;82;21103;-78
2022/05/12 09:13:48;;;;;;;21.40;4.97;;;;;;;22.21;45.95;101148.41;1703122;81;21130;-79
2022/05/12 09:16:25;;;;;;;10.75;3.95;;;;;;;22.20;46.04;101143.98;1722692;81;21569;-78
2022/05/12 09:18:53;;;;;;;18.77;5.35;;;;;;;22.19;45.82;101142.37;1745696;81;21986;-77
2022/05/12 09:21:29;;;;;;;13.62;4.25;;;;;;;22.19;45.80;101149.30;1687964;83;21163;-78
2022/05/12 09:23:57;;;;;;;13.45;4.70;;;;;;;22.19;45.78;101143.77;1716846;82;21035;-77
2022/05/12 09:26:46;;;;;;;9.40;4.62;;;;;;;22.17;45.84;101140.48;1743926;81;21103;-77
2022/05/12 09:29:28;;;;;;;12.98;4.47;;;;;;;22.16;45.91;101137.45;1736863;79;21088;-77
2022/05/12 09:32:09;;;;;;;10.55;4.83;;;;;;;22.16;46.06;101136.89;1731873;82;21186;-77
2022/05/12 09:34:46;;;;;;;15.90;4.70;;;;;;;22.15;46.09;101133.07;1751301;80;21182;-79
2022/05/12 09:37:27;;;;;;;10.53;4.28;;;;;;;22.16;46.08;101136.06;1735956;81;21074;-80
2022/05/12 09:39:54;;;;;;;;;;;;;;;22.14;46.06;101135.02;1681454;81;21037;-80
2022/05/12 09:42:35;;;;;;;15.78;4.83;;;;;;;22.13;46.03;101136.72;1729048;81;20351;-77
2022/05/12 09:45:04;;;;;;;;;;;;;;;22.11;45.88;101129.28;1748420;81;22217;-78
2022/05/12 09:47:32;;;;;;;9.43;4.05;;;;;;;22.11;45.72;101132.05;1732591;81;20163;-78
2022/05/12 09:50:20;;;;;;;6.87;3.95;;;;;;;22.14;45.52;101130.86;1741492;81;21045;-78
2022/05/12 09:53:00;;;;;;;8.00;3.92;;;;;;;22.22;45.34;101136.19;1704987;82;21674;-78
2022/05/12 09:55:37;;;;;;;12.95;4.15;;;;;;;22.22;45.43;101126.48;1709383;82;21159;-77
2022/05/12 09:58:15;;;;;;;11.97;3.95;;;;;;;22.25;45.58;101131.38;1726115;81;21218;-77
2022/05/12 10:00:51;;;;;;;14.05;4.00;;;;;;;22.25;45.62;101119.73;1722901;81;21080;-77
2022/05/12 10:09:17;;;;;;;9.88;3.50;;;;;;;22.39;45.96;101119.61;1723894;82;21148;-81
2022/05/12 10:12:06;;;;;;;13.58;3.02;;;;;;;22.40;45.70;101107.95;1707540;81;22140;-79
2022/05/12 10:14:59;;;;;;;8.25;3.95;;;;;;;22.38;45.40;101097.17;1727758;80;21283;-78
2022/05/12 10:17:45;;;;;;;10.90;3.87;;;;;;;22.41;45.06;101102.06;1738202;81;21108;-80
2022/05/12 10:20:21;;;;;;;13.15;4.55;;;;;;;22.49;44.52;101103.25;1724446;82;21208;-80
2022/05/12 10:23:17;;;;;;;11.40;5.12;;;;;;;22.56;44.02;101102.19;1720163;81;21542;-79
2022/05/12 10:26:07;;;;;;;14.50;5.33;;;;;;;22.59;43.73;101109.29;1723156;81;21190;-79
2022/05/12 10:28:55;;;;;;;13.30;4.45;;;;;;;22.58;43.53;101092.39;1725066;81;21420;-77
2022/05/12 10:31:48;;;;;;;7.87;4.28;;;;;;;22.60;43.37;101083.77;1725576;81;21045;-77
2022/05/12 10:34:51;;;;;;;8.85;4.33;;;;;;;22.61;43.08;101086.22;1713396;81;21230;-79
2022/05/12 10:37:40;;;;;;;10.28;4.72;;;;;;;22.66;42.94;101086.05;1718182;81;21045;-79
2022/05/12 10:40:48;;;;;;;13.95;4.37;;;;;;;22.69;42.73;101080.47;1753741;80;21614;-80
2022/05/12 10:43:56;;;;;;;5.87;3.70;;;;;;;22.67;42.59;101075.20;1730595;81;21142;-80
2022/05/12 10:46:47;;;;;;;8.15;5.22;;;;;;;22.66;42.52;101068.02;1710202;83;21072;-78
2022/05/12 10:49:29;;;;;;;11.33;4.47;;;;;;;22.64;42.62;101067.54;1699146;82;21528;-78
2022/05/12 10:52:33;;;;;;;12.25;3.92;;;;;;;22.59;42.93;101058.55;1736200;80;21027;-82
2022/05/12 10:55:47;;;;;;;10.75;4.03;;;;;;;22.57;43.28;101059.47;1731415;80;21661;-78
2022/05/12 10:58:42;;;;;;;11.85;3.22;;;;;;;22.59;43.88;101057.98;1733252;80;21170;-79
2022/05/12 11:01:32;;;;;;;15.55;3.50;;;;;;;22.62;44.02;101060.67;1731600;80;21123;-76
2022/05/12 11:04:16;;;;;;;10.65;3.47;;;;;;;22.63;44.06;101055.38;1733225;81;21320;-76
2022/05/12 11:06:53;;;;;;;11.43;2.95;;;;;;;22.62;44.19;101047.63;1745839;81;21052;-78
2022/05/12 11:09:33;;;;;;;19.52;3.52;;;;;;;22.63;43.94;101045.09;1737493;81;22210;-78
2022/05/12 11:12:11;;;;;;;13.13;2.77;;;;;;;22.67;43.93;101054.97;1732177;80;21035;-75
2022/05/12 11:14:41;;;;;;;10.45;3.33;;;;;;;22.65;43.90;101054.49;1714173;81;21248;-77
2022/05/12 11:17:20;;;;;;;7.20;3.05;;;;;;;22.64;43.75;101046.73;1741040;81;22315;-79
2022/05/12 11:20:17;;;;;;;7.12;2.98;;;;;;;22.64;43.58;101045.92;1726441;81;21208;-77
2022/05/12 11:22:52;;;;;;;6.92;3.10;;;;;;;22.65;43.35;101042.83;1729091;80;21266;-78
2022/05/12 11:25:33;;;;;;;8.88;3.92;;;;;;;22.65;43.21;101041.45;1730771;82;21156;-77
2022/05/12 11:31:13;;;;;;;10.03;4.53;;;;;;;22.67;43.05;101039.14;1743514;80;21057;-77
2022/05/12 11:33:42;;;;;;;9.90;3.80;;;;;;;22.65;43.10;101038.67;1735158;81;21174;-77
2022/05/12 11:36:09;;;;;;;13.70;4.17;;;;;;;22.64;43.15;101034.83;1730737;81;21669;-79
2022/05/12 11:38:43;;;;;;;9.80;4.05;;;;;;;22.62;43.15;101035.70;1716684;80;22262;-78
2022/05/12 11:41:36;;;;;;;8.48;4.78;;;;;;;22.61;43.16;101041.85;1743367;80;21150;-79
2022/05/12 11:44:26;;;;;;;19.12;4.35;;;;;;;22.58;43.14;101028.62;1741505;80;21709;-79
2022/05/12 11:47:15;;;;;;;8.93;4.42;;;;;;;22.56;43.14;101024.55;1724301;80;21815;-78
2022/05/12 11:49:56;;;;;;;12.78;3.70;;;;;;;22.56;43.15;101022.59;1729276;80;21438;-78
2022/05/12 11:52:44;;;;;;;13.80;3.85;;;;;;;22.61;43.17;101018.28;1726123;81;21127;-78
2022/05/12 11:55:30;;;;;;;13.90;3.00;;;;;;;22.67;44.07;101023.07;1726217;81;21063;-77
2022/05/12 11:58:04;;;;;;;14.23;2.95;;;;;;;22.72;44.13;101018.22;1725135;81;21187;-80
2022/05/12 12:00:43;;;;;;;12.80;2.87;;;;;;;22.78;44.00;101013.90;1731018;80;21060;-81
2022/05/12 12:03:24;;;;;;;23.47;3.08;;;;;;;22.82;43.98;101014.88;1739745;80;21459;-77